sensor_id;sensor_type;location;lat;lon;timestamp;pressure;altitude;pressure_sealevel;temperature;humidity
42289;BME280;30230;47.520;19.016;2022-10-16T00:00:03;99544.88;;;14.19;73.80
42289;BME280;30230;47.520;19.016;2022-10-16T00:02:03;99540.16;;;14.08;74.39
42289;BME280;30230;47.520;19.016;2022-10-16T00:04:03;99537.47;;;14.01;74.69
42289;BME280;30230;47.520;19.016;2022-10-16T00:06:04;99532.72;;;13.97;75.30
42289;BME280;30230;47.520;19.016;2022-10-16T00:08:05;99537.13;;;13.91;75.87
42289;BME280;30230;47.520;19.016;2022-10-16T00:10:05;99537.13;;;13.91;76.46
42289;BME280;30230;47.520;19.016;2022-10-16T00:12:06;99535.19;;;13.98;74.69
42289;BME280;30230;47.520;19.016;2022-10-16T00:14:08;99538.56;;;13.94;74.60
42289;BME280;30230;47.520;19.016;2022-10-16T00:16:09;99533.19;;;13.87;75.17
42289;BME280;30230;47.520;19.016;2022-10-16T00:18:10;99534.66;;;13.83;75.61
42289;BME280;30230;47.520;19.016;2022-10-16T00:20:10;99537.78;;;13.87;74.62
42289;BME280;30230;47.520;19.016;2022-10-16T00:22:11;99543.81;;;13.89;75.44
42289;BME280;30230;47.520;19.016;2022-10-16T00:24:11;99542.34;;;13.93;74.74
42289;BME280;30230;47.520;19.016;2022-10-16T00:26:13;99554.06;;;13.87;74.78
42289;BME280;30230;47.520;19.016;2022-10-16T00:28:13;99549.53;;;13.80;74.92
42289;BME280;30230;47.520;19.016;2022-10-16T00:30:13;99560.81;;;13.77;76.19
42289;BME280;30230;47.520;19.016;2022-10-16T00:32:14;99556.66;;;13.75;75.06
42289;BME280;30230;47.520;19.016;2022-10-16T00:34:14;99551.38;;;13.80;74.10
42289;BME280;30230;47.520;19.016;2022-10-16T00:36:15;99564.31;;;13.85;73.88
42289;BME280;30230;47.520;19.016;2022-10-16T00:38:16;99564.13;;;13.79;73.68
42289;BME280;30230;47.520;19.016;2022-10-16T00:40:17;99563.09;;;13.80;73.54
42289;BME280;30230;47.520;19.016;2022-10-16T00:42:17;99563.69;;;13.82;73.38
42289;BME280;30230;47.520;19.016;2022-10-16T00:46:38;99562.28;;;13.73;73.37
42289;BME280;30230;47.520;19.016;2022-10-16T00:48:39;99564.63;;;13.70;74.19
42289;BME280;30230;47.520;19.016;2022-10-16T00:50:39;99565.25;;;13.65;74.52
42289;BME280;30230;47.520;19.016;2022-10-16T00:52:44;99562.53;;;13.65;74.40
42289;BME280;30230;47.520;19.016;2022-10-16T00:54:46;99566.72;;;13.61;74.52
42289;BME280;30230;47.520;19.016;2022-10-16T00:56:47;99571.09;;;13.62;74.71
42289;BME280;30230;47.520;19.016;2022-10-16T00:58:47;99573.63;;;13.57;75.84
42289;BME280;30230;47.520;19.016;2022-10-16T01:00:47;99579.44;;;13.67;75.33
42289;BME280;30230;47.520;19.016;2022-10-16T01:02:51;99578.84;;;13.65;74.31
42289;BME280;30230;47.520;19.016;2022-10-16T01:04:52;99579.06;;;13.57;75.69
42289;BME280;30230;47.520;19.016;2022-10-16T01:07:14;99574.69;;;13.56;75.26
42289;BME280;30230;47.520;19.016;2022-10-16T01:09:17;99584.72;;;13.55;75.34
42289;BME280;30230;47.520;19.016;2022-10-16T01:11:22;99572.44;;;13.46;76.50
42289;BME280;30230;47.520;19.016;2022-10-16T01:13:33;99575.38;;;13.45;76.73
42289;BME280;30230;47.520;19.016;2022-10-16T01:15:47;99571.00;;;13.37;77.33
42289;BME280;30230;47.520;19.016;2022-10-16T01:17:57;99580.59;;;13.33;77.50
42289;BME280;30230;47.520;19.016;2022-10-16T01:20:06;99577.28;;;13.31;77.51
42289;BME280;30230;47.520;19.016;2022-10-16T01:22:07;99578.56;;;13.22;78.70
42289;BME280;30230;47.520;19.016;2022-10-16T01:28:15;99590.28;;;13.02;80.15
42289;BME280;30230;47.520;19.016;2022-10-16T01:30:18;99588.78;;;13.13;78.02
42289;BME280;30230;47.520;19.016;2022-10-16T01:32:24;99593.81;;;13.03;78.07
42289;BME280;30230;47.520;19.016;2022-10-16T01:34:30;99591.53;;;13.00;79.20
42289;BME280;30230;47.520;19.016;2022-10-16T01:36:45;99587.75;;;13.01;79.25
42289;BME280;30230;47.520;19.016;2022-10-16T01:38:47;99591.13;;;12.90;78.82
42289;BME280;30230;47.520;19.016;2022-10-16T01:40:51;99586.31;;;12.85;78.48
42289;BME280;30230;47.520;19.016;2022-10-16T01:42:53;99593.44;;;12.80;79.34
42289;BME280;30230;47.520;19.016;2022-10-16T01:44:55;99593.63;;;12.71;79.02
42289;BME280;30230;47.520;19.016;2022-10-16T01:46:56;99596.56;;;12.63;79.64
42289;BME280;30230;47.520;19.016;2022-10-16T01:48:56;99606.16;;;12.52;81.11
42289;BME280;30230;47.520;19.016;2022-10-16T01:51:05;99607.38;;;12.50;80.96
42289;BME280;30230;47.520;19.016;2022-10-16T01:53:07;99607.41;;;12.37;81.33
42289;BME280;30230;47.520;19.016;2022-10-16T01:55:09;99617.81;;;12.33;81.35
42289;BME280;30230;47.520;19.016;2022-10-16T01:57:10;99610.72;;;12.25;81.94
42289;BME280;30230;47.520;19.016;2022-10-16T01:59:13;99619.47;;;12.21;83.13
42289;BME280;30230;47.520;19.016;2022-10-16T02:01:15;99619.84;;;12.18;82.57
42289;BME280;30230;47.520;19.016;2022-10-16T02:03:18;99619.44;;;12.14;82.29
42289;BME280;30230;47.520;19.016;2022-10-16T02:05:53;99628.38;;;12.08;82.90
42289;BME280;30230;47.520;19.016;2022-10-16T02:07:47;99624.63;;;12.03;83.70
42289;BME280;30230;47.520;19.016;2022-10-16T02:09:47;99619.78;;;11.91;83.79
42289;BME280;30230;47.520;19.016;2022-10-16T02:11:47;99622.09;;;11.94;83.88
42289;BME280;30230;47.520;19.016;2022-10-16T02:13:53;99625.03;;;11.99;82.56
42289;BME280;30230;47.520;19.016;2022-10-16T02:15:55;99625.00;;;11.93;83.45
42289;BME280;30230;47.520;19.016;2022-10-16T02:17:55;99619.78;;;11.91;84.32
42289;BME280;30230;47.520;19.016;2022-10-16T02:19:56;99610.22;;;11.89;83.76
42289;BME280;30230;47.520;19.016;2022-10-16T02:21:58;99610.63;;;11.86;83.58
42289;BME280;30230;47.520;19.016;2022-10-16T02:24:05;99615.22;;;11.92;83.67
42289;BME280;30230;47.520;19.016;2022-10-16T02:26:08;99621.88;;;11.89;83.52
42289;BME280;30230;47.520;19.016;2022-10-16T02:28:15;99613.53;;;11.84;84.00
42289;BME280;30230;47.520;19.016;2022-10-16T02:30:32;99615.34;;;11.77;84.54
42289;BME280;30230;47.520;19.016;2022-10-16T02:32:34;99623.44;;;11.70;85.29
42289;BME280;30230;47.520;19.016;2022-10-16T02:34:35;99623.22;;;11.65;84.88
42289;BME280;30230;47.520;19.016;2022-10-16T02:36:36;99624.63;;;11.61;85.14
42289;BME280;30230;47.520;19.016;2022-10-16T02:38:36;99625.91;;;11.65;84.97
42289;BME280;30230;47.520;19.016;2022-10-16T02:40:38;99631.31;;;11.59;85.16
42289;BME280;30230;47.520;19.016;2022-10-16T02:42:39;99628.53;;;11.52;84.81
42289;BME280;30230;47.520;19.016;2022-10-16T02:44:39;99625.59;;;11.47;85.42
42289;BME280;30230;47.520;19.016;2022-10-16T02:46:40;99626.84;;;11.38;85.20
42289;BME280;30230;47.520;19.016;2022-10-16T02:48:41;99623.09;;;11.39;86.19
42289;BME280;30230;47.520;19.016;2022-10-16T02:50:41;99631.41;;;11.37;85.74
42289;BME280;30230;47.520;19.016;2022-10-16T02:52:41;99627.44;;;11.33;86.40
42289;BME280;30230;47.520;19.016;2022-10-16T02:54:41;99635.94;;;11.30;87.67
42289;BME280;30230;47.520;19.016;2022-10-16T02:56:42;99638.19;;;11.27;87.04
42289;BME280;30230;47.520;19.016;2022-10-16T02:58:42;99631.94;;;11.26;87.33
42289;BME280;30230;47.520;19.016;2022-10-16T03:00:42;99635.91;;;11.24;86.62
42289;BME280;30230;47.520;19.016;2022-10-16T03:02:43;99636.94;;;11.23;88.37
42289;BME280;30230;47.520;19.016;2022-10-16T03:04:43;99635.25;;;11.21;87.69
42289;BME280;30230;47.520;19.016;2022-10-16T03:06:43;99637.53;;;11.18;88.19
42289;BME280;30230;47.520;19.016;2022-10-16T03:08:44;99636.50;;;11.19;87.09
42289;BME280;30230;47.520;19.016;2022-10-16T03:10:44;99639.00;;;11.20;88.21
42289;BME280;30230;47.520;19.016;2022-10-16T03:12:44;99644.81;;;11.17;88.25
42289;BME280;30230;47.520;19.016;2022-10-16T03:14:45;99640.63;;;11.15;89.56
42289;BME280;30230;47.520;19.016;2022-10-16T03:16:45;99640.81;;;11.13;89.30
42289;BME280;30230;47.520;19.016;2022-10-16T03:18:48;99644.75;;;11.11;89.16
42289;BME280;30230;47.520;19.016;2022-10-16T03:20:49;99649.91;;;11.06;89.71
42289;BME280;30230;47.520;19.016;2022-10-16T03:22:49;99654.47;;;11.05;89.97
42289;BME280;30230;47.520;19.016;2022-10-16T03:24:50;99654.25;;;11.00;90.72
42289;BME280;30230;47.520;19.016;2022-10-16T03:26:50;99659.22;;;10.97;89.77
42289;BME280;30230;47.520;19.016;2022-10-16T03:28:50;99662.94;;;10.95;89.30
42289;BME280;30230;47.520;19.016;2022-10-16T03:30:50;99661.69;;;10.91;88.48
42289;BME280;30230;47.520;19.016;2022-10-16T03:32:51;99665.81;;;10.87;89.26
42289;BME280;30230;47.520;19.016;2022-10-16T03:34:54;99675.78;;;10.87;89.41
42289;BME280;30230;47.520;19.016;2022-10-16T03:36:56;99665.34;;;10.84;89.56
42289;BME280;30230;47.520;19.016;2022-10-16T03:38:56;99672.16;;;10.80;90.37
42289;BME280;30230;47.520;19.016;2022-10-16T03:40:57;99671.16;;;10.81;89.46
42289;BME280;30230;47.520;19.016;2022-10-16T03:42:57;99679.25;;;10.81;89.96
42289;BME280;30230;47.520;19.016;2022-10-16T03:44:57;99672.41;;;10.85;89.83
42289;BME280;30230;47.520;19.016;2022-10-16T03:46:57;99682.00;;;10.87;89.40
42289;BME280;30230;47.520;19.016;2022-10-16T03:48:58;99675.88;;;11.00;89.07
42289;BME280;30230;47.520;19.016;2022-10-16T03:50:58;99677.31;;;10.96;89.01
42289;BME280;30230;47.520;19.016;2022-10-16T03:52:58;99670.63;;;10.92;90.22
42289;BME280;30230;47.520;19.016;2022-10-16T03:54:59;99671.00;;;10.89;90.70
42289;BME280;30230;47.520;19.016;2022-10-16T03:56:59;99673.44;;;10.84;90.70
42289;BME280;30230;47.520;19.016;2022-10-16T03:58:59;99674.69;;;10.81;91.01
42289;BME280;30230;47.520;19.016;2022-10-16T04:00:59;99679.63;;;10.78;91.35
42289;BME280;30230;47.520;19.016;2022-10-16T04:03:00;99677.72;;;10.72;92.39
42289;BME280;30230;47.520;19.016;2022-10-16T04:05:00;99677.06;;;10.69;92.06
42289;BME280;30230;47.520;19.016;2022-10-16T04:07:01;99680.81;;;10.68;91.82
42289;BME280;30230;47.520;19.016;2022-10-16T04:09:01;99687.19;;;10.61;92.62
42289;BME280;30230;47.520;19.016;2022-10-16T04:11:02;99688.13;;;10.53;92.95
42289;BME280;30230;47.520;19.016;2022-10-16T04:13:03;99685.59;;;10.45;92.50
42289;BME280;30230;47.520;19.016;2022-10-16T04:15:03;99688.44;;;10.43;93.49
42289;BME280;30230;47.520;19.016;2022-10-16T04:17:04;99692.44;;;10.48;93.52
42289;BME280;30230;47.520;19.016;2022-10-16T04:19:04;99692.00;;;10.44;93.86
42289;BME280;30230;47.520;19.016;2022-10-16T04:21:05;99690.56;;;10.48;93.97
42289;BME280;30230;47.520;19.016;2022-10-16T04:23:05;99682.88;;;10.45;94.08
42289;BME280;30230;47.520;19.016;2022-10-16T04:25:06;99686.34;;;10.39;95.34
42289;BME280;30230;47.520;19.016;2022-10-16T04:27:06;99685.31;;;10.40;95.35
42289;BME280;30230;47.520;19.016;2022-10-16T04:29:07;99689.69;;;10.41;95.23
42289;BME280;30230;47.520;19.016;2022-10-16T04:31:07;99694.47;;;10.39;94.36
42289;BME280;30230;47.520;19.016;2022-10-16T04:33:08;99695.19;;;10.33;94.68
42289;BME280;30230;47.520;19.016;2022-10-16T04:35:08;99697.06;;;10.32;94.49
42289;BME280;30230;47.520;19.016;2022-10-16T04:37:09;99698.31;;;10.30;95.06
42289;BME280;30230;47.520;19.016;2022-10-16T04:39:09;99693.28;;;10.27;95.15
42289;BME280;30230;47.520;19.016;2022-10-16T04:41:09;99693.66;;;10.24;94.32
42289;BME280;30230;47.520;19.016;2022-10-16T04:43:09;99694.63;;;10.23;94.32
42289;BME280;30230;47.520;19.016;2022-10-16T04:45:10;99698.09;;;10.31;93.64
42289;BME280;30230;47.520;19.016;2022-10-16T04:47:11;99703.03;;;10.28;94.29
42289;BME280;30230;47.520;19.016;2022-10-16T04:49:11;99694.75;;;10.29;93.60
42289;BME280;30230;47.520;19.016;2022-10-16T04:51:12;99700.03;;;10.23;93.34
42289;BME280;30230;47.520;19.016;2022-10-16T04:53:12;99703.97;;;10.20;93.79
42289;BME280;30230;47.520;19.016;2022-10-16T04:55:12;99704.16;;;10.18;94.02
42289;BME280;30230;47.520;19.016;2022-10-16T04:57:13;99705.56;;;10.14;94.28
42289;BME280;30230;47.520;19.016;2022-10-16T04:59:14;99710.31;;;10.12;93.88
42289;BME280;30230;47.520;19.016;2022-10-16T05:01:14;99705.31;;;10.09;92.98
42289;BME280;30230;47.520;19.016;2022-10-16T05:03:14;99707.44;;;10.14;92.83
42289;BME280;30230;47.520;19.016;2022-10-16T05:05:15;99705.75;;;10.13;93.08
42289;BME280;30230;47.520;19.016;2022-10-16T05:07:15;99705.00;;;10.19;93.01
42289;BME280;30230;47.520;19.016;2022-10-16T05:09:15;99697.06;;;10.17;93.03
42289;BME280;30230;47.520;19.016;2022-10-16T05:11:15;99706.66;;;10.20;93.98
42289;BME280;30230;47.520;19.016;2022-10-16T05:13:16;99705.00;;;10.19;94.90
42289;BME280;30230;47.520;19.016;2022-10-16T05:15:16;99704.81;;;10.21;94.57
42289;BME280;30230;47.520;19.016;2022-10-16T05:17:17;99708.34;;;10.21;94.66
42289;BME280;30230;47.520;19.016;2022-10-16T05:19:17;99714.97;;;10.18;94.03
42289;BME280;30230;47.520;19.016;2022-10-16T05:21:18;99711.03;;;10.21;93.61
42289;BME280;30230;47.520;19.016;2022-10-16T05:23:18;99712.28;;;10.18;94.11
42289;BME280;30230;47.520;19.016;2022-10-16T05:25:19;99730.50;;;10.16;95.62
42289;BME280;30230;47.520;19.016;2022-10-16T05:27:19;99728.19;;;10.13;96.17
42289;BME280;30230;47.520;19.016;2022-10-16T05:29:19;99731.91;;;10.12;95.55
42289;BME280;30230;47.520;19.016;2022-10-16T05:31:20;99730.63;;;10.08;95.68
42289;BME280;30230;47.520;19.016;2022-10-16T05:33:20;99738.72;;;10.08;96.30
42289;BME280;30230;47.520;19.016;2022-10-16T05:35:21;99735.00;;;10.09;96.32
42289;BME280;30230;47.520;19.016;2022-10-16T05:37:21;99730.91;;;10.13;96.46
42289;BME280;30230;47.520;19.016;2022-10-16T05:39:22;99738.81;;;10.15;95.94
42289;BME280;30230;47.520;19.016;2022-10-16T05:41:22;99730.50;;;10.16;95.89
42289;BME280;30230;47.520;19.016;2022-10-16T05:43:26;99733.19;;;10.16;95.75
42289;BME280;30230;47.520;19.016;2022-10-16T05:45:27;99741.97;;;10.18;94.61
42289;BME280;30230;47.520;19.016;2022-10-16T05:47:27;99734.69;;;10.19;94.95
42289;BME280;30230;47.520;19.016;2022-10-16T05:49:28;99731.47;;;10.24;93.96
42289;BME280;30230;47.520;19.016;2022-10-16T05:51:28;99731.47;;;10.24;93.68
42289;BME280;30230;47.520;19.016;2022-10-16T05:53:29;99735.44;;;10.28;94.34
42289;BME280;30230;47.520;19.016;2022-10-16T05:55:29;99741.88;;;10.27;94.08
42289;BME280;30230;47.520;19.016;2022-10-16T05:57:29;99745.56;;;10.40;96.76
42289;BME280;30230;47.520;19.016;2022-10-16T05:59:30;99747.88;;;10.43;95.63
42289;BME280;30230;47.520;19.016;2022-10-16T06:01:30;99745.81;;;10.46;95.49
42289;BME280;30230;47.520;19.016;2022-10-16T06:03:31;99753.94;;;10.46;95.22
42289;BME280;30230;47.520;19.016;2022-10-16T06:05:31;99762.72;;;10.54;94.77
42289;BME280;30230;47.520;19.016;2022-10-16T06:07:33;99762.00;;;10.60;94.75
42289;BME280;30230;47.520;19.016;2022-10-16T06:09:34;99759.47;;;10.59;94.28
42289;BME280;30230;47.520;19.016;2022-10-16T06:11:34;99770.34;;;10.65;94.13
42289;BME280;30230;47.520;19.016;2022-10-16T06:13:36;99764.28;;;10.63;93.39
42289;BME280;30230;47.520;19.016;2022-10-16T06:15:37;99769.69;;;10.63;92.89
42289;BME280;30230;47.520;19.016;2022-10-16T06:17:38;99773.50;;;10.69;92.59
42289;BME280;30230;47.520;19.016;2022-10-16T06:19:39;99766.75;;;10.80;91.35
42289;BME280;30230;47.520;19.016;2022-10-16T06:21:39;99781.16;;;10.87;89.62
42289;BME280;30230;47.520;19.016;2022-10-16T06:23:39;99775.63;;;10.95;89.26
42289;BME280;30230;47.520;19.016;2022-10-16T06:25:40;99781.28;;;11.00;88.74
42289;BME280;30230;47.520;19.016;2022-10-16T06:27:43;99781.78;;;11.10;87.15
42289;BME280;30230;47.520;19.016;2022-10-16T06:29:43;99786.03;;;11.19;86.02
42289;BME280;30230;47.520;19.016;2022-10-16T06:31:44;99787.41;;;11.37;81.97
42289;BME280;30230;47.520;19.016;2022-10-16T06:33:45;99785.13;;;11.34;82.57
42289;BME280;30230;47.520;19.016;2022-10-16T06:35:48;99797.47;;;11.43;82.54
42289;BME280;30230;47.520;19.016;2022-10-16T06:37:48;99801.91;;;11.51;80.94
42289;BME280;30230;47.520;19.016;2022-10-16T06:39:48;99808.38;;;11.56;80.83
42289;BME280;30230;47.520;19.016;2022-10-16T06:41:48;99804.75;;;11.70;81.18
42289;BME280;30230;47.520;19.016;2022-10-16T06:43:49;99810.59;;;12.02;78.91
42289;BME280;30230;47.520;19.016;2022-10-16T06:45:53;99806.13;;;12.29;77.79
42289;BME280;30230;47.520;19.016;2022-10-16T06:47:53;99803.28;;;12.44;77.46
42289;BME280;30230;47.520;19.016;2022-10-16T06:49:54;99804.78;;;12.53;74.83
42289;BME280;30230;47.520;19.016;2022-10-16T06:51:54;99803.06;;;12.45;75.30
42289;BME280;30230;47.520;19.016;2022-10-16T06:53:54;99807.84;;;12.30;77.12
42289;BME280;30230;47.520;19.016;2022-10-16T06:55:56;99813.84;;;12.25;76.43
42289;BME280;30230;47.520;19.016;2022-10-16T06:57:57;99820.72;;;12.28;75.55
42289;BME280;30230;47.520;19.016;2022-10-16T06:59:57;99819.44;;;12.17;76.47
42289;BME280;30230;47.520;19.016;2022-10-16T07:01:58;99822.28;;;12.09;78.61
42289;BME280;30230;47.520;19.016;2022-10-16T07:03:58;99824.81;;;12.11;77.50
42289;BME280;30230;47.520;19.016;2022-10-16T07:06:02;99834.16;;;12.08;76.94
42289;BME280;30230;47.520;19.016;2022-10-16T07:08:03;99835.31;;;12.27;85.08
42289;BME280;30230;47.520;19.016;2022-10-16T07:10:05;99830.91;;;12.67;86.20
42289;BME280;30230;47.520;19.016;2022-10-16T07:12:05;99829.41;;;12.65;75.24
42289;BME280;30230;47.520;19.016;2022-10-16T07:14:15;99834.72;;;12.93;87.13
42289;BME280;30230;47.520;19.016;2022-10-16T07:16:19;99833.47;;;12.89;75.15
42289;BME280;30230;47.520;19.016;2022-10-16T07:18:20;99835.50;;;12.73;75.02
42289;BME280;30230;47.520;19.016;2022-10-16T07:20:20;99842.78;;;12.66;73.28
42289;BME280;30230;47.520;19.016;2022-10-16T07:22:21;99840.69;;;12.68;72.79
42289;BME280;30230;47.520;19.016;2022-10-16T07:24:21;99841.75;;;12.67;73.79
42289;BME280;30230;47.520;19.016;2022-10-16T07:26:22;99852.13;;;12.57;74.45
42289;BME280;30230;47.520;19.016;2022-10-16T07:28:22;99858.13;;;12.46;75.51
42289;BME280;30230;47.520;19.016;2022-10-16T07:30:22;99862.06;;;12.43;75.97
42289;BME280;30230;47.520;19.016;2022-10-16T07:32:23;99860.78;;;12.39;75.49
42289;BME280;30230;47.520;19.016;2022-10-16T07:34:25;99860.16;;;12.37;75.79
42289;BME280;30230;47.520;19.016;2022-10-16T07:36:26;99861.81;;;12.38;76.55
42289;BME280;30230;47.520;19.016;2022-10-16T07:38:26;99869.75;;;12.40;77.36
42289;BME280;30230;47.520;19.016;2022-10-16T07:40:27;99878.72;;;12.40;76.37
42289;BME280;30230;47.520;19.016;2022-10-16T07:42:28;99868.91;;;12.39;76.55
42289;BME280;30230;47.520;19.016;2022-10-16T07:44:28;99870.41;;;12.42;77.13
42289;BME280;30230;47.520;19.016;2022-10-16T07:46:29;99871.44;;;12.41;77.61
42289;BME280;30230;47.520;19.016;2022-10-16T07:48:31;99870.41;;;12.42;77.52
42289;BME280;30230;47.520;19.016;2022-10-16T07:50:31;99875.41;;;12.45;77.63
42289;BME280;30230;47.520;19.016;2022-10-16T07:52:32;99864.41;;;12.53;76.67
42289;BME280;30230;47.520;19.016;2022-10-16T07:54:32;99874.66;;;12.64;79.65
42289;BME280;30230;47.520;19.016;2022-10-16T07:56:32;99875.66;;;13.18;85.10
42289;BME280;30230;47.520;19.016;2022-10-16T07:58:33;99874.06;;;13.57;85.93
42289;BME280;30230;47.520;19.016;2022-10-16T08:00:33;99875.13;;;13.75;80.14
42289;BME280;30230;47.520;19.016;2022-10-16T08:02:34;99876.56;;;13.98;83.79
42289;BME280;30230;47.520;19.016;2022-10-16T08:04:34;99878.22;;;14.19;82.46
42289;BME280;30230;47.520;19.016;2022-10-16T08:06:36;99882.41;;;13.95;71.65
42289;BME280;30230;47.520;19.016;2022-10-16T08:08:37;99885.53;;;13.85;69.74
42289;BME280;30230;47.520;19.016;2022-10-16T08:10:37;99888.91;;;13.74;70.73
42289;BME280;30230;47.520;19.016;2022-10-16T08:12:37;99897.06;;;13.67;70.80
42289;BME280;30230;47.520;19.016;2022-10-16T08:14:38;99889.09;;;13.59;71.12
42289;BME280;30230;47.520;19.016;2022-10-16T08:16:38;99890.38;;;13.50;71.32
42289;BME280;30230;47.520;19.016;2022-10-16T08:18:39;99897.25;;;13.39;71.56
42289;BME280;30230;47.520;19.016;2022-10-16T08:20:40;99900.53;;;13.28;71.39
42289;BME280;30230;47.520;19.016;2022-10-16T08:22:40;99910.16;;;13.24;70.70
42289;BME280;30230;47.520;19.016;2022-10-16T08:24:41;99907.22;;;13.25;71.39
42289;BME280;30230;47.520;19.016;2022-10-16T08:26:41;99910.16;;;13.31;72.65
42289;BME280;30230;47.520;19.016;2022-10-16T08:28:41;99913.91;;;13.29;72.41
42289;BME280;30230;47.520;19.016;2022-10-16T08:30:41;99913.28;;;13.27;72.55
42289;BME280;30230;47.520;19.016;2022-10-16T08:32:42;99911.88;;;13.45;70.87
42289;BME280;30230;47.520;19.016;2022-10-16T08:34:42;99918.75;;;13.41;71.01
42289;BME280;30230;47.520;19.016;2022-10-16T08:36:42;99923.13;;;13.48;71.71
42289;BME280;30230;47.520;19.016;2022-10-16T08:38:43;99920.00;;;13.45;70.87
42289;BME280;30230;47.520;19.016;2022-10-16T08:40:43;99920.63;;;13.47;70.04
42289;BME280;30230;47.520;19.016;2022-10-16T08:47:13;99913.34;;;13.87;69.13
42289;BME280;30230;47.520;19.016;2022-10-16T08:49:17;99918.34;;;13.97;69.00
42289;BME280;30230;47.520;19.016;2022-10-16T08:51:24;99909.16;;;13.98;69.24
42289;BME280;30230;47.520;19.016;2022-10-16T08:53:30;99919.41;;;14.02;70.15
42289;BME280;30230;47.520;19.016;2022-10-16T08:55:37;99925.88;;;14.08;69.48
42289;BME280;30230;47.520;19.016;2022-10-16T08:57:38;99928.78;;;14.00;69.12
42289;BME280;30230;47.520;19.016;2022-10-16T08:59:38;99929.84;;;13.99;69.61
42289;BME280;30230;47.520;19.016;2022-10-16T09:01:40;99928.59;;;14.01;70.32
42289;BME280;30230;47.520;19.016;2022-10-16T09:06:07;99924.81;;;14.09;68.40
42289;BME280;30230;47.520;19.016;2022-10-16T09:12:37;99933.16;;;14.14;68.90
42289;BME280;30230;47.520;19.016;2022-10-16T09:16:53;99932.53;;;14.25;68.83
42289;BME280;30230;47.520;19.016;2022-10-16T09:19:13;99935.88;;;14.34;68.71
42289;BME280;30230;47.520;19.016;2022-10-16T09:21:18;99934.19;;;14.53;67.84
42289;BME280;30230;47.520;19.016;2022-10-16T09:23:22;99937.72;;;14.60;66.34
42289;BME280;30230;47.520;19.016;2022-10-16T09:25:25;99925.34;;;14.71;67.67
42289;BME280;30230;47.520;19.016;2022-10-16T09:27:25;99931.41;;;14.79;66.80
42289;BME280;30230;47.520;19.016;2022-10-16T09:29:26;99931.13;;;14.88;66.01
42289;BME280;30230;47.520;19.016;2022-10-16T09:31:26;99939.91;;;14.96;67.03
42289;BME280;30230;47.520;19.016;2022-10-16T09:33:30;99931.69;;;15.03;65.17
42289;BME280;30230;47.520;19.016;2022-10-16T09:35:35;99931.00;;;15.21;64.06
42289;BME280;30230;47.520;19.016;2022-10-16T09:37:36;99930.00;;;15.47;63.12
42289;BME280;30230;47.520;19.016;2022-10-16T09:39:47;99932.63;;;15.67;61.71
42289;BME280;30230;47.520;19.016;2022-10-16T09:41:47;99936.63;;;15.64;62.28
42289;BME280;30230;47.520;19.016;2022-10-16T09:45:54;99938.13;;;15.53;63.05
42289;BME280;30230;47.520;19.016;2022-10-16T09:47:55;99939.09;;;15.66;61.66
42289;BME280;30230;47.520;19.016;2022-10-16T09:49:57;99937.28;;;15.53;62.33
42289;BME280;30230;47.520;19.016;2022-10-16T09:52:32;99942.56;;;15.48;63.48
42289;BME280;30230;47.520;19.016;2022-10-16T09:54:26;99945.50;;;15.46;64.83
42289;BME280;30230;47.520;19.016;2022-10-16T09:56:27;99948.22;;;15.46;63.46
42289;BME280;30230;47.520;19.016;2022-10-16T09:58:28;99961.63;;;15.48;62.83
42289;BME280;30230;47.520;19.016;2022-10-16T10:00:28;99958.84;;;15.54;63.89
42289;BME280;30230;47.520;19.016;2022-10-16T10:02:30;99958.75;;;15.74;62.03
42289;BME280;30230;47.520;19.016;2022-10-16T10:04:38;99961.22;;;15.82;62.90
42289;BME280;30230;47.520;19.016;2022-10-16T10:10:54;99947.81;;;15.81;62.75
42289;BME280;30230;47.520;19.016;2022-10-16T10:12:55;99939.53;;;15.94;63.74
42289;BME280;30230;47.520;19.016;2022-10-16T10:14:56;99939.22;;;16.09;62.90
42289;BME280;30230;47.520;19.016;2022-10-16T10:17:09;99929.31;;;16.33;60.44
42289;BME280;30230;47.520;19.016;2022-10-16T10:19:16;99945.31;;;16.48;61.15
42289;BME280;30230;47.520;19.016;2022-10-16T10:21:17;99929.78;;;16.48;62.01
42289;BME280;30230;47.520;19.016;2022-10-16T10:23:22;99935.41;;;16.53;62.25
42289;BME280;30230;47.520;19.016;2022-10-16T10:26:05;99935.66;;;16.70;60.05
42289;BME280;30230;47.520;19.016;2022-10-16T10:27:56;99934.69;;;16.83;60.97
42289;BME280;30230;47.520;19.016;2022-10-16T10:36:39;99923.00;;;17.42;58.80
42289;BME280;30230;47.520;19.016;2022-10-16T10:38:51;99923.44;;;17.39;59.80
42289;BME280;30230;47.520;19.016;2022-10-16T10:41:15;99919.91;;;17.51;59.99
42289;BME280;30230;47.520;19.016;2022-10-16T10:43:29;99926.75;;;17.71;56.63
42289;BME280;30230;47.520;19.016;2022-10-16T10:45:44;99924.56;;;18.04;55.86
42289;BME280;30230;47.520;19.016;2022-10-16T10:47:47;99930.50;;;18.24;55.11
42289;BME280;30230;47.520;19.016;2022-10-16T10:52:02;99922.19;;;18.54;56.20
42289;BME280;30230;47.520;19.016;2022-10-16T11:07:18;99927.69;;;19.18;53.07
42289;BME280;30230;47.520;19.016;2022-10-16T11:09:22;99925.97;;;19.29;54.21
42289;BME280;30230;47.520;19.016;2022-10-16T11:15:29;99910.78;;;19.38;51.55
42289;BME280;30230;47.520;19.016;2022-10-16T11:17:35;99908.94;;;19.43;52.81
42289;BME280;30230;47.520;19.016;2022-10-16T11:19:42;99911.41;;;19.57;52.35
42289;BME280;30230;47.520;19.016;2022-10-16T11:21:54;99909.88;;;19.61;52.94
42289;BME280;30230;47.520;19.016;2022-10-16T11:24:13;99910.03;;;19.71;52.00
42289;BME280;30230;47.520;19.016;2022-10-16T11:26:26;99908.03;;;19.66;52.22
42289;BME280;30230;47.520;19.016;2022-10-16T11:28:37;99907.47;;;19.81;50.93
42289;BME280;30230;47.520;19.016;2022-10-16T11:30:52;99905.31;;;19.83;50.26